Terminal Aerodrome Forecast
Issued by NWS

Home | Current Version | Previous Version | Text Only | Print | Product List | Glossary On
Versions: 1 2 3 4 5 6 7 8 9 10 11 12 13 14
779
FTUS45 KFGZ 260540
TAFSEZ
TAF
KSEZ 260540Z 2606/2706 04011G17KT P6SM SCT160
     FM261500 VRB05KT P6SM SCT160=

USA.gov is the U.S. government's official web portal to all federal, state and local government web resources and services.